createdAt,value
2022-08-17T00:00:52.118Z,94.39
2022-08-17T00:01:52.589Z,94.59
2022-08-17T00:02:50.405Z,94.58
2022-08-17T00:03:50.849Z,94.66
2022-08-17T00:04:52.315Z,94.55
2022-08-17T00:05:52.747Z,94.61
2022-08-17T00:06:53.398Z,94.86
2022-08-17T00:07:54.077Z,95.15
2022-08-17T00:08:54.857Z,95.38
2022-08-17T00:09:54.743Z,95.91
2022-08-17T00:10:55.353Z,95.11
2022-08-17T00:12:43.786Z,96.02
2022-08-17T00:12:56.579Z,95.69
2022-08-17T00:13:56.967Z,96.29
2022-08-17T00:14:58.717Z,96.83
2022-08-17T00:15:58.508Z,96.37
2022-08-17T00:16:58.584Z,97.02
2022-08-17T00:18:00.263Z,96.44
2022-08-17T00:19:07.533Z,96.11
2022-08-17T00:20:00.585Z,96.18
2022-08-17T00:21:00.954Z,95.90
2022-08-17T00:22:34.993Z,95.65
2022-08-17T00:23:02.020Z,95.39
2022-08-17T00:24:03.742Z,95.27
2022-08-17T00:25:04.141Z,95.52
2022-08-17T00:25:13.353Z,96.43
2022-08-17T00:26:14.273Z,96.40
2022-08-17T00:27:14.265Z,96.09
2022-08-17T00:28:15.912Z,95.86
2022-08-17T00:29:19.842Z,95.47
2022-08-17T00:30:16.351Z,95.52
2022-08-17T00:31:18.191Z,95.67
2022-08-17T00:33:11.876Z,96.80
2022-08-17T00:33:18.027Z,96.45
2022-08-17T00:34:19.270Z,96.48
2022-08-17T00:35:19.857Z,96.48
2022-08-17T00:36:19.838Z,96.60
2022-08-17T00:37:20.380Z,96.39
2022-08-17T00:38:21.417Z,95.92
2022-08-17T00:39:23.143Z,95.85
2022-08-17T00:40:24.570Z,96.54
2022-08-17T00:41:23.087Z,96.94
2022-08-17T00:42:28.840Z,97.04
2022-08-17T00:43:24.655Z,97.25
2022-08-17T00:44:30.223Z,96.94
2022-08-17T00:45:25.278Z,97.50
2022-08-17T00:46:26.231Z,97.03
2022-08-17T00:47:26.886Z,96.24
2022-08-17T00:48:29.970Z,96.67
2022-08-17T00:49:28.116Z,96.75
2022-08-17T00:50:29.346Z,96.57
2022-08-17T00:51:29.912Z,97.25
2022-08-17T00:52:29.426Z,97.25
2022-08-17T00:52:42.682Z,96.41
2022-08-17T00:53:43.301Z,96.41
2022-08-17T00:54:44.913Z,98.12
2022-08-17T00:55:45.637Z,97.74
2022-08-17T00:56:46.727Z,97.35
2022-08-17T00:57:46.437Z,97.90
2022-08-17T00:58:47.963Z,97.22
2022-08-17T00:59:51.096Z,97.59
2022-08-17T01:00:47.572Z,98.08
2022-08-17T01:01:48.299Z,99.33
2022-08-17T01:02:49.736Z,99.84
2022-08-17T01:03:50.595Z,99.49
2022-08-17T01:04:51.021Z,99.10
2022-08-17T01:05:51.833Z,99.21
2022-08-17T01:06:50.927Z,99.08
2022-08-17T01:07:51.202Z,99.01
2022-08-17T01:08:57.373Z,99.93
2022-08-17T01:09:52.247Z,100.82
2022-08-17T01:11:00.381Z,100.73
2022-08-17T01:11:53.151Z,100.67
2022-08-17T01:12:54.819Z,100.71
2022-08-17T01:13:55.540Z,100.14
2022-08-17T10:35:21.578Z,66.60
2022-08-17T10:36:20.646Z,66.76
2022-08-17T10:37:22.427Z,67.80
2022-08-17T10:38:24.774Z,67.94
2022-08-17T10:39:22.892Z,67.98
2022-08-17T10:40:24.734Z,66.82
2022-08-17T10:41:24.170Z,67.60
2022-08-17T10:42:30.528Z,67.35
2022-08-17T10:43:24.721Z,66.61
2022-08-17T10:44:38.798Z,66.42
2022-08-17T10:45:25.013Z,66.46
2022-08-17T10:46:30.958Z,66.27
2022-08-17T10:47:26.128Z,67.26
2022-08-17T10:48:27.617Z,67.35
2022-08-17T10:49:28.238Z,67.03
2022-08-17T10:50:28.805Z,65.87
2022-08-17T10:51:29.390Z,65.16
2022-08-17T10:52:29.890Z,65.31
2022-08-17T10:53:30.480Z,65.39
2022-08-17T10:54:30.212Z,65.60
2022-08-17T10:55:31.402Z,64.79
2022-08-17T10:56:32.133Z,65.48
2022-08-17T10:57:32.747Z,65.44
2022-08-17T10:57:44.963Z,67.10
2022-08-17T10:58:45.704Z,67.04
2022-08-17T10:59:46.196Z,66.62
2022-08-17T11:00:47.731Z,65.04
2022-08-17T11:01:46.701Z,65.72
2022-08-17T11:02:48.259Z,65.16
2022-08-17T11:03:49.104Z,64.29
2022-08-17T11:04:49.350Z,64.35
2022-08-17T11:05:50.248Z,63.77
2022-08-17T11:06:49.228Z,61.91
2022-08-17T11:07:50.149Z,61.42
2022-08-17T11:08:51.694Z,60.19
2022-08-17T11:09:52.230Z,59.29
2022-08-17T11:10:53.098Z,59.72
2022-08-17T11:11:54.021Z,58.80
2022-08-17T11:12:53.806Z,56.80
2022-08-17T11:13:55.422Z,56.72
2022-08-17T11:14:54.474Z,56.93
2022-08-17T11:15:59.020Z,57.26
2022-08-17T11:16:54.641Z,56.69
2022-08-17T11:17:56.461Z,56.99
2022-08-17T11:18:57.073Z,56.22
2022-08-17T11:19:57.368Z,55.58
2022-08-17T11:20:58.126Z,56.11
2022-08-17T11:21:06.830Z,56.25
2022-08-17T11:22:07.789Z,56.19
2022-08-17T11:23:09.398Z,56.14
2022-08-17T11:24:10.365Z,55.89
2022-08-17T11:25:11.057Z,55.47
2022-08-17T11:26:11.743Z,55.51
2022-08-17T11:27:12.597Z,54.83
2022-08-17T11:28:12.722Z,54.85
2022-08-17T11:29:13.272Z,55.20
2022-08-17T11:30:12.708Z,55.62
2022-08-17T11:31:13.472Z,55.74
2022-08-17T11:32:13.629Z,56.03
2022-08-17T11:33:14.404Z,55.49
2022-08-17T11:34:14.477Z,55.24
2022-08-17T11:35:16.405Z,55.18
2022-08-17T11:36:15.757Z,55.11
2022-08-17T11:37:16.587Z,55.52
2022-08-17T11:38:18.575Z,54.69
2022-08-17T11:39:18.906Z,54.43
2022-08-17T11:40:19.532Z,54.92
2022-08-17T11:41:19.287Z,54.68
2022-08-17T11:42:20.925Z,55.52
2022-08-17T11:43:21.701Z,56.13
2022-08-17T11:43:33.208Z,56.68
2022-08-17T11:44:30.513Z,56.61
2022-08-17T11:45:33.116Z,56.19
2022-08-17T11:46:31.546Z,56.18
2022-08-17T11:47:32.629Z,56.73
2022-08-17T11:48:33.352Z,55.49
2022-08-17T11:49:32.437Z,56.50
2022-08-17T11:50:33.847Z,57.16
2022-08-17T11:51:34.428Z,56.72
2022-08-17T11:52:34.468Z,56.27
2022-08-17T11:53:34.487Z,56.93
2022-08-17T11:54:34.943Z,57.41
2022-08-17T11:55:36.617Z,57.51
2022-08-17T11:56:35.122Z,56.44
2022-08-17T11:57:36.903Z,57.40
2022-08-17T11:58:36.988Z,57.44
2022-08-17T11:59:37.568Z,58.82
2022-08-17T12:00:38.362Z,57.61
2022-08-17T12:01:38.448Z,58.24
2022-08-17T12:02:38.481Z,58.59
2022-08-17T12:03:38.620Z,59.48
2022-08-17T12:03:53.826Z,60.35
2022-08-17T12:04:49.365Z,60.45
2022-08-17T12:05:49.787Z,60.05
2022-08-17T12:06:51.183Z,59.88
2022-08-17T12:07:51.489Z,60.41
2022-08-17T12:08:51.030Z,59.55
2022-08-17T12:09:51.298Z,59.04
2022-08-17T12:10:52.974Z,59.43
2022-08-17T12:11:55.508Z,59.56
2022-08-17T12:12:52.914Z,58.87
2022-08-17T12:13:54.484Z,58.36
2022-08-17T12:15:11.910Z,57.65
2022-08-17T12:15:53.889Z,57.47
2022-08-17T12:16:54.932Z,56.90
2022-08-17T12:17:56.226Z,56.48
2022-08-17T12:18:55.691Z,56.75
2022-08-17T12:19:56.359Z,55.97
2022-08-17T12:20:57.517Z,55.50
2022-08-17T12:21:57.755Z,55.16
2022-08-17T12:22:58.424Z,54.74
2022-08-17T12:23:59.134Z,55.34
2022-08-17T12:24:59.449Z,55.51
2022-08-17T12:25:59.875Z,55.24
2022-08-17T12:26:08.564Z,54.99
2022-08-17T12:27:09.176Z,54.95
2022-08-17T12:28:10.945Z,54.94
2022-08-17T12:29:18.161Z,55.21
2022-08-17T12:30:10.299Z,55.96
2022-08-17T12:31:11.875Z,56.55
2022-08-17T12:32:11.084Z,56.23
2022-08-17T12:33:12.228Z,56.57
2022-08-17T12:34:11.759Z,56.24
2022-08-17T12:35:13.685Z,56.24
2022-08-17T12:36:13.680Z,56.15
2022-08-17T12:37:13.701Z,55.98
2022-08-17T12:38:32.506Z,55.99
2022-08-17T12:39:14.863Z,55.59
2022-08-17T12:40:13.718Z,55.96
2022-08-17T12:41:14.415Z,56.45
2022-08-17T12:42:14.989Z,56.39
2022-08-17T12:43:16.661Z,55.96
2022-08-17T12:44:17.520Z,55.86
2022-08-17T12:45:18.424Z,55.78
2022-08-17T12:46:19.272Z,55.78
2022-08-17T12:47:22.633Z,56.67
2022-08-17T12:48:19.203Z,57.17
2022-08-17T12:48:28.719Z,56.88
2022-08-17T12:49:29.252Z,56.92
2022-08-17T12:50:30.815Z,56.28
2022-08-17T12:51:31.860Z,56.19
2022-08-17T12:52:31.260Z,57.20
2022-08-17T12:53:32.195Z,57.62
2022-08-17T12:54:33.103Z,57.53
2022-08-17T12:55:34.119Z,56.66
2022-08-17T12:56:33.324Z,56.79
2022-08-17T12:57:34.957Z,56.62
2022-08-17T12:58:35.142Z,57.28
2022-08-17T12:59:36.122Z,57.68
2022-08-17T13:00:35.979Z,57.23
2022-08-17T13:01:36.756Z,56.80
2022-08-17T13:02:37.033Z,55.63
2022-08-17T13:03:37.841Z,55.59
2022-08-17T13:04:39.123Z,56.10
2022-08-17T13:05:39.461Z,56.34
2022-08-17T13:06:39.453Z,56.55
2022-08-17T13:07:40.466Z,56.45
2022-08-17T13:08:41.030Z,56.15
2022-08-17T13:09:41.962Z,55.33
2022-08-17T13:09:50.696Z,54.94
2022-08-17T13:10:52.231Z,54.90
2022-08-17T13:11:51.991Z,55.07
2022-08-17T13:12:53.673Z,54.23
2022-08-17T13:13:54.482Z,54.17
2022-08-17T13:14:54.044Z,53.41
2022-08-17T13:15:55.339Z,53.80
2022-08-17T13:16:56.013Z,53.94
2022-08-17T13:17:56.720Z,53.56
2022-08-17T13:18:57.106Z,53.82
2022-08-17T13:19:57.752Z,54.66
2022-08-17T13:20:58.298Z,54.13
2022-08-17T13:21:58.795Z,54.59
2022-08-17T13:22:59.375Z,54.42
2022-08-17T13:24:00.013Z,54.06
2022-08-17T13:25:00.498Z,54.17
2022-08-17T13:26:01.173Z,54.76
2022-08-17T13:27:01.689Z,54.31
2022-08-17T13:28:01.239Z,54.20
2022-08-17T13:29:02.999Z,54.54
2022-08-17T13:29:13.184Z,54.19
2022-08-17T13:30:13.544Z,54.17
2022-08-17T13:31:15.036Z,53.97
2022-08-17T13:32:15.799Z,53.52
2022-08-17T13:33:15.069Z,53.25
2022-08-17T13:34:15.948Z,53.76
2022-08-17T13:35:29.606Z,54.13
2022-08-17T13:36:20.008Z,53.93
2022-08-17T13:37:18.440Z,53.89
2022-08-17T13:38:18.958Z,53.43
2022-08-17T13:39:20.795Z,52.62
2022-08-17T13:40:21.006Z,53.38
2022-08-17T13:41:21.367Z,52.99
2022-08-17T13:42:22.510Z,53.06
2022-08-17T13:43:21.647Z,52.93
2022-08-17T13:44:23.245Z,53.55
2022-08-17T13:45:34.763Z,54.12
2022-08-17T13:46:22.996Z,53.71
2022-08-17T13:47:24.574Z,54.24
2022-08-17T13:48:24.943Z,54.04
2022-08-17T13:49:24.757Z,54.37
2022-08-17T13:50:25.370Z,55.33
2022-08-17T13:51:26.941Z,55.39
2022-08-17T13:52:27.158Z,54.92
2022-08-17T13:53:26.394Z,55.25
2022-08-17T13:53:35.083Z,55.50
2022-08-17T13:54:36.436Z,55.54
2022-08-17T13:55:36.650Z,55.59
2022-08-17T13:56:38.373Z,55.46
2022-08-17T13:57:36.277Z,54.98
2022-08-17T13:58:38.280Z,55.39
2022-08-17T13:59:54.333Z,55.06
2022-08-17T14:00:38.060Z,54.98
2022-08-17T14:01:39.728Z,54.97
2022-08-17T14:02:39.227Z,55.15
2022-08-17T14:03:40.822Z,55.75
2022-08-17T14:04:40.244Z,55.89
2022-08-17T14:05:41.859Z,55.94
2022-08-17T14:06:52.828Z,56.05
2022-08-17T14:07:42.438Z,56.03
2022-08-17T14:08:43.742Z,55.87
2022-08-17T14:09:43.977Z,56.01
2022-08-17T14:10:44.311Z,55.85
2022-08-17T14:11:45.048Z,54.81
2022-08-17T14:12:45.016Z,55.32
2022-08-17T14:12:53.741Z,54.88
2022-08-17T14:13:55.628Z,54.73
2022-08-17T14:14:56.243Z,54.46
2022-08-17T14:15:56.845Z,53.83
2022-08-17T14:16:56.097Z,54.05
2022-08-17T14:17:57.969Z,55.44
2022-08-17T14:18:58.356Z,54.35
2022-08-17T14:19:59.310Z,54.34
2022-08-17T14:20:59.869Z,54.06
2022-08-17T14:22:00.431Z,54.13
2022-08-17T14:23:00.004Z,53.10
2022-08-17T14:24:01.475Z,52.37
2022-08-17T14:25:02.339Z,53.06
2022-08-17T14:26:03.174Z,53.22
2022-08-17T14:27:03.604Z,54.21
2022-08-17T14:28:03.258Z,54.21
2022-08-17T14:29:04.849Z,54.61
2022-08-17T14:30:04.580Z,54.33
2022-08-17T14:31:06.551Z,53.85
2022-08-17T14:32:07.213Z,53.67
2022-08-17T14:32:15.942Z,53.71
2022-08-17T14:33:16.672Z,53.68
2022-08-17T14:34:18.382Z,53.49
2022-08-17T14:35:18.870Z,53.47
2022-08-17T14:36:18.907Z,53.35
2022-08-17T14:37:19.506Z,53.62
2022-08-17T14:38:19.985Z,53.68
2022-08-17T14:39:19.879Z,53.94
2022-08-17T14:40:21.336Z,53.91
2022-08-17T14:41:22.232Z,53.79
2022-08-17T14:42:21.284Z,53.94
2022-08-17T14:43:21.786Z,54.45
2022-08-17T14:44:23.279Z,54.60
2022-08-17T14:45:32.002Z,54.63
2022-08-17T14:46:23.130Z,53.90
2022-08-17T14:47:24.737Z,54.28
2022-08-17T14:48:24.216Z,53.64
2022-08-17T14:49:26.111Z,52.98
2022-08-17T14:50:26.610Z,53.08
2022-08-17T14:51:26.088Z,54.08
2022-08-17T14:52:27.386Z,54.46
2022-08-17T14:53:27.800Z,54.37
2022-08-17T14:53:36.521Z,53.93
2022-08-17T14:54:36.672Z,53.98
2022-08-17T14:55:38.107Z,53.90
2022-08-17T14:56:38.735Z,54.20
2022-08-17T14:57:39.510Z,54.02
2022-08-17T14:58:39.864Z,54.25
2022-08-17T14:59:39.965Z,54.29
2022-08-17T15:00:40.989Z,54.42
2022-08-17T15:01:40.160Z,54.53
2022-08-17T15:02:40.990Z,54.44
2022-08-17T15:03:42.795Z,54.84
2022-08-17T15:04:45.631Z,54.57
2022-08-17T15:05:43.042Z,54.82
2022-08-17T15:06:44.622Z,55.36
2022-08-17T15:07:45.115Z,55.61
2022-08-17T15:08:45.867Z,55.14
2022-08-17T15:09:46.595Z,55.12
2022-08-17T15:10:46.145Z,55.48
2022-08-17T15:10:57.878Z,55.13
2022-08-17T15:11:58.924Z,55.11
2022-08-17T15:12:59.426Z,54.90
2022-08-17T15:13:59.925Z,54.83
2022-08-17T15:15:00.355Z,54.42
2022-08-17T15:16:01.198Z,54.74
2022-08-17T15:17:01.669Z,55.27
2022-08-17T15:18:01.968Z,55.40
2022-08-17T15:19:01.504Z,55.52
2022-08-17T15:20:02.791Z,56.23
2022-08-17T15:21:02.565Z,56.54
2022-08-17T15:22:03.806Z,56.73
2022-08-17T15:23:04.567Z,57.06
2022-08-17T15:24:05.225Z,56.56
2022-08-17T15:25:04.919Z,56.32
2022-08-17T15:26:06.654Z,56.33
2022-08-17T15:27:06.832Z,56.20
2022-08-17T15:28:07.737Z,55.37
2022-08-17T15:29:07.924Z,55.72
2022-08-17T15:30:07.577Z,55.56
2022-08-17T15:30:16.807Z,55.64
2022-08-17T15:31:16.879Z,55.67
2022-08-17T15:32:18.554Z,55.16
2022-08-17T15:33:18.827Z,56.01
2022-08-17T15:34:19.370Z,55.61
2022-08-17T15:35:19.797Z,55.41
2022-08-17T15:36:19.647Z,55.76
2022-08-17T15:37:21.460Z,55.86
2022-08-17T15:38:22.427Z,55.57
2022-08-17T15:39:22.966Z,55.51
2022-08-17T15:40:22.854Z,55.23
2022-08-17T15:41:24.561Z,55.84
2022-08-17T15:42:25.565Z,55.29
2022-08-17T15:43:27.950Z,55.65
2022-08-17T15:44:32.375Z,55.42
2022-08-17T15:45:26.178Z,54.68
2022-08-17T15:46:27.661Z,55.03
2022-08-17T15:47:27.667Z,54.87
2022-08-17T15:48:27.951Z,55.02
2022-08-17T15:49:28.669Z,55.51
2022-08-17T15:50:28.748Z,55.44
2022-08-17T15:50:37.477Z,55.64
2022-08-17T15:51:39.276Z,55.67
2022-08-17T15:52:40.179Z,55.93
2022-08-17T15:53:40.101Z,55.11
2022-08-17T15:54:41.564Z,55.14
2022-08-17T15:55:41.374Z,55.45
2022-08-17T15:56:42.964Z,55.42
2022-08-17T15:57:43.281Z,55.01
2022-08-17T15:58:42.842Z,55.19
2022-08-17T15:59:44.371Z,54.69
2022-08-17T16:00:53.220Z,55.11
2022-08-17T16:03:14.515Z,54.86
2022-08-17T16:03:46.148Z,54.90
2022-08-17T16:04:04.779Z,54.85
2022-08-17T16:04:46.748Z,54.92
2022-08-17T16:05:47.556Z,54.71
2022-08-17T16:06:49.254Z,54.71
2022-08-17T16:07:49.732Z,54.55
2022-08-17T16:08:48.583Z,54.87
2022-08-17T16:09:50.117Z,54.91
2022-08-17T16:10:50.713Z,55.26
2022-08-17T16:11:51.958Z,55.32
2022-08-17T16:12:50.898Z,54.96
2022-08-17T16:13:55.083Z,55.17
2022-08-17T16:14:51.527Z,55.36
2022-08-17T16:15:57.252Z,55.06
2022-08-17T16:16:00.737Z,55.28
2022-08-17T16:17:01.044Z,55.31
2022-08-17T16:18:02.782Z,55.41
2022-08-17T16:19:03.713Z,55.70
2022-08-17T16:20:04.660Z,56.11
2022-08-17T16:21:03.802Z,56.62
2022-08-17T16:22:05.019Z,55.82
2022-08-17T16:23:05.571Z,55.50
2022-08-17T16:24:05.575Z,55.53
2022-08-17T16:25:04.801Z,55.40
2022-08-17T16:26:05.976Z,55.49
2022-08-17T16:27:11.670Z,55.76
2022-08-17T16:28:06.173Z,55.71
2022-08-17T16:29:07.959Z,55.60
2022-08-17T16:30:07.109Z,55.58
2022-08-17T16:31:09.319Z,55.97
2022-08-17T16:32:07.917Z,56.05
2022-08-17T16:33:09.457Z,55.94
2022-08-17T16:34:17.177Z,56.17
2022-08-17T16:35:09.572Z,56.18
2022-08-17T16:36:11.279Z,56.67
2022-08-17T16:36:23.714Z,56.55
2022-08-17T16:37:31.449Z,56.53
2022-08-17T16:38:24.543Z,56.87
2022-08-17T16:39:25.677Z,56.66
2022-08-17T16:40:24.900Z,56.80
2022-08-17T16:41:25.356Z,56.15
2022-08-17T16:42:26.940Z,56.69
2022-08-17T16:43:27.432Z,56.88
2022-08-17T16:44:27.976Z,57.00
2022-08-17T16:45:28.409Z,57.65
2022-08-17T16:46:29.277Z,57.63
2022-08-17T16:47:29.904Z,57.44
2022-08-17T16:48:30.655Z,58.13
2022-08-17T16:49:36.713Z,57.87
2022-08-17T16:50:30.913Z,57.92
2022-08-17T16:51:31.761Z,57.96
2022-08-17T16:52:32.391Z,58.08
2022-08-17T16:53:32.567Z,58.48
2022-08-17T16:54:34.474Z,58.86
2022-08-17T16:55:33.746Z,58.99
2022-08-17T16:56:35.296Z,59.61
2022-08-17T16:57:34.736Z,59.11
2022-08-17T16:57:47.224Z,58.96
2022-08-17T16:58:44.472Z,58.96
2022-08-17T16:59:48.101Z,58.94
2022-08-17T17:00:45.662Z,59.46
2022-08-17T17:01:46.535Z,59.32
2022-08-17T17:02:47.752Z,59.75
2022-08-17T17:03:48.401Z,59.81
2022-08-17T17:04:50.102Z,59.51
2022-08-17T17:05:55.108Z,59.84
2022-08-17T17:06:49.229Z,59.86
2022-08-17T17:07:50.281Z,59.90
2022-08-17T17:08:50.323Z,59.74
2022-08-17T17:09:50.623Z,60.23
2022-08-17T17:10:50.820Z,60.33
2022-08-17T17:11:54.226Z,60.50
2022-08-17T17:13:01.467Z,61.16
2022-08-17T17:13:52.230Z,60.56
2022-08-17T17:14:21.289Z,59.71
2022-08-17T17:15:22.222Z,59.70
2022-08-17T17:16:22.064Z,59.74
2022-08-17T17:17:23.829Z,59.95
2022-08-17T17:18:23.143Z,59.89
2022-08-17T17:19:34.326Z,59.34
2022-08-17T17:20:24.173Z,59.60
2022-08-17T17:21:25.058Z,59.67
2022-08-17T17:22:25.131Z,59.95
2022-08-17T17:23:26.710Z,59.90
2022-08-17T17:24:29.929Z,59.75
2022-08-17T17:25:27.495Z,60.25
2022-08-17T17:26:28.967Z,60.28
2022-08-17T17:27:29.428Z,60.45
2022-08-17T17:28:28.565Z,60.79
2022-08-17T17:29:47.306Z,61.20
2022-08-17T17:30:29.355Z,60.86
2022-08-17T17:31:30.096Z,60.81
2022-08-17T17:32:30.438Z,60.89
2022-08-17T17:32:49.384Z,60.88
2022-08-17T17:33:49.669Z,60.93
2022-08-17T17:34:51.168Z,61.22
2022-08-17T17:35:51.340Z,61.41
2022-08-17T17:36:52.029Z,61.18
2022-08-17T17:37:53.198Z,61.26
2022-08-17T17:38:52.999Z,61.00
2022-08-17T17:39:53.221Z,61.26
2022-08-17T17:41:02.333Z,61.14
2022-08-17T17:41:53.922Z,61.74
2022-08-17T17:42:53.918Z,61.79
2022-08-17T17:43:54.063Z,61.67
2022-08-17T17:44:54.986Z,62.30
2022-08-17T17:45:58.210Z,61.98
2022-08-17T17:46:56.283Z,61.82
2022-08-17T17:47:57.077Z,61.92
2022-08-17T17:48:57.866Z,62.05
2022-08-17T17:49:58.319Z,62.76
2022-08-17T17:50:59.205Z,63.34
2022-08-17T17:52:10.834Z,63.23
2022-08-17T17:52:59.958Z,63.00
2022-08-17T17:54:00.939Z,62.79
2022-08-17T17:55:01.886Z,63.10
2022-08-17T17:55:13.850Z,63.32
2022-08-17T17:56:44.072Z,63.34
2022-08-17T17:57:15.319Z,63.77
2022-08-17T17:58:17.809Z,63.36
2022-08-17T17:59:16.560Z,63.66
2022-08-17T18:00:18.336Z,63.89
2022-08-17T18:01:20.443Z,63.74
2022-08-17T18:02:20.667Z,63.90
2022-08-17T18:03:18.628Z,64.35
2022-08-17T18:04:21.283Z,64.55
2022-08-17T18:05:19.116Z,64.75
2022-08-17T18:06:22.653Z,64.88
2022-08-17T18:07:20.067Z,65.23
2022-08-17T18:08:20.265Z,65.50
2022-08-17T18:09:21.016Z,65.03
2022-08-17T18:10:29.656Z,65.07
2022-08-17T18:11:24.959Z,65.32
2022-08-17T18:12:22.321Z,66.29
2022-08-17T18:13:22.943Z,66.30
2022-08-17T18:14:23.492Z,66.13
2022-08-17T18:15:24.671Z,66.37
2022-08-17T18:15:35.756Z,66.44
2022-08-17T18:16:36.048Z,66.51
2022-08-17T18:17:36.213Z,66.44
2022-08-17T18:18:36.966Z,66.81
2022-08-17T18:19:37.946Z,66.99
2022-08-17T18:20:53.441Z,67.08
2022-08-17T18:21:39.615Z,67.75
2022-08-17T18:22:39.950Z,68.13
2022-08-17T18:23:40.595Z,68.14
2022-08-17T18:24:48.105Z,69.33
2022-08-17T18:25:41.644Z,68.74
2022-08-17T18:26:44.993Z,69.40
2022-08-17T18:27:43.480Z,69.29
2022-08-17T18:28:44.397Z,69.77
2022-08-17T18:29:45.339Z,70.19
2022-08-17T18:30:46.142Z,70.27
2022-08-17T18:31:55.398Z,71.14
2022-08-17T18:32:47.208Z,71.41
2022-08-17T18:33:47.473Z,71.27
2022-08-17T18:34:48.717Z,71.24
2022-08-17T18:35:48.256Z,71.50
2022-08-17T18:36:49.208Z,71.87
2022-08-17T18:37:50.199Z,72.47
2022-08-17T18:38:50.216Z,72.84
2022-08-17T18:39:50.452Z,73.61
2022-08-17T18:40:50.826Z,73.90
2022-08-17T18:41:51.252Z,73.37
2022-08-17T18:42:11.355Z,73.40
2022-08-17T18:43:11.578Z,73.40
2022-08-17T18:44:12.299Z,73.79
2022-08-17T18:45:12.660Z,74.04
2022-08-17T18:46:13.708Z,74.56
2022-08-17T18:47:16.494Z,74.75
2022-08-17T18:48:14.427Z,75.47
2022-08-17T18:49:14.491Z,75.61
2022-08-17T18:50:14.948Z,75.82
2022-08-17T18:51:15.279Z,75.24
2022-08-17T18:52:15.860Z,75.56
2022-08-17T18:53:17.498Z,75.32
2022-08-17T18:54:17.213Z,75.49
2022-08-17T18:55:17.634Z,75.22
2022-08-17T18:56:18.227Z,74.77
2022-08-17T18:57:18.389Z,74.72
2022-08-17T18:58:18.620Z,75.01
2022-08-17T18:59:20.494Z,74.96
2022-08-17T19:00:20.417Z,75.08
2022-08-17T19:01:47.250Z,75.36
2022-08-17T19:02:36.031Z,75.46
2022-08-17T19:02:46.020Z,75.59
2022-08-17T19:03:38.960Z,75.64
2022-08-17T19:04:40.233Z,75.92
2022-08-17T19:05:39.913Z,75.59
2022-08-17T19:06:40.652Z,76.26
2022-08-17T19:07:41.549Z,76.42
2022-08-17T19:08:44.202Z,76.44
2022-08-17T19:09:45.180Z,76.58
2022-08-17T19:10:46.216Z,76.56
2022-08-17T19:11:42.459Z,76.70
2022-08-17T19:12:42.620Z,76.54
2022-08-17T19:13:43.483Z,76.79
2022-08-17T19:14:44.196Z,77.59
2022-08-17T19:15:44.784Z,77.78
2022-08-17T19:16:45.576Z,77.79
2022-08-17T19:16:56.908Z,77.92
2022-08-17T19:17:56.973Z,77.98
2022-08-17T19:19:26.559Z,78.08
2022-08-17T19:19:57.186Z,78.42
2022-08-17T19:20:58.586Z,78.55
2022-08-17T19:21:57.853Z,78.74
2022-08-17T19:23:01.132Z,79.12
2022-08-17T19:23:59.305Z,79.70
2022-08-17T19:25:02.747Z,79.32
2022-08-17T19:26:01.192Z,79.29
2022-08-17T19:27:01.682Z,80.31
2022-08-17T19:28:03.133Z,80.10
2022-08-17T19:29:02.178Z,80.34
2022-08-17T19:30:07.928Z,80.30
2022-08-17T19:31:09.496Z,80.65
2022-08-17T19:32:06.550Z,80.79
2022-08-17T19:33:07.901Z,80.86
2022-08-17T19:34:29.885Z,81.00
2022-08-17T19:35:06.165Z,80.99
2022-08-17T19:36:08.691Z,81.61
2022-08-17T19:37:09.504Z,81.49
2022-08-17T19:38:23.169Z,81.51
2022-08-17T19:39:20.354Z,81.49
2022-08-17T19:40:48.985Z,81.54
2022-08-17T19:41:23.812Z,81.81
2022-08-17T19:42:21.463Z,81.69
2022-08-17T19:43:21.608Z,82.13
2022-08-17T19:44:22.544Z,82.12
2022-08-17T19:45:23.130Z,81.62
2022-08-17T19:46:23.293Z,80.81
2022-08-17T19:47:53.232Z,80.54
2022-08-17T19:48:30.983Z,82.11
2022-08-17T19:49:32.811Z,83.14
2022-08-17T19:50:24.502Z,82.62
2022-08-17T19:51:27.945Z,82.46
2022-08-17T19:52:28.697Z,81.61
2022-08-17T19:53:36.854Z,81.33
2022-08-17T19:54:03.906Z,81.14
2022-08-17T19:54:42.163Z,81.12
2022-08-17T19:55:42.717Z,81.47
2022-08-17T19:56:43.045Z,81.63
2022-08-17T19:57:44.057Z,81.61
2022-08-17T19:58:44.875Z,81.36
2022-08-17T19:59:47.728Z,81.91
2022-08-17T20:00:45.812Z,82.06
2022-08-17T20:01:45.999Z,81.86
2022-08-17T20:02:46.741Z,82.20
2022-08-17T20:03:46.775Z,82.30
2022-08-17T20:04:47.070Z,82.77
2022-08-17T20:06:09.244Z,82.89
2022-08-17T20:06:48.282Z,82.13
2022-08-17T20:07:48.803Z,83.28
2022-08-17T20:08:48.865Z,86.35
2022-08-17T20:09:49.453Z,87.28
2022-08-17T20:10:54.509Z,87.40
2022-08-17T20:11:50.208Z,88.43
2022-08-17T20:12:50.602Z,88.73
2022-08-17T20:13:51.515Z,88.52
2022-08-17T20:14:55.902Z,85.25
2022-08-17T20:15:52.701Z,84.57
2022-08-17T20:17:03.090Z,84.50
2022-08-17T20:18:03.053Z,83.39
2022-08-17T20:19:04.358Z,83.36
2022-08-17T20:20:04.092Z,83.00
2022-08-17T20:21:04.696Z,82.62
2022-08-17T20:22:05.433Z,82.50
2022-08-17T20:23:06.445Z,83.12
2022-08-17T20:24:07.204Z,83.54
2022-08-17T20:25:10.449Z,84.47
2022-08-17T20:26:08.710Z,86.14
2022-08-17T20:27:11.866Z,86.59
2022-08-17T20:28:09.766Z,84.11
2022-08-17T20:29:10.312Z,84.21
2022-08-17T20:30:11.005Z,84.11
2022-08-17T20:31:11.626Z,84.49
2022-08-17T20:32:12.320Z,84.60
2022-08-17T20:33:13.235Z,83.98
2022-08-17T20:34:14.110Z,83.96
2022-08-17T20:35:14.611Z,84.70
2022-08-17T20:36:14.586Z,84.15
2022-08-17T20:37:14.663Z,84.58
2022-08-17T20:38:14.965Z,84.56
2022-08-17T20:39:16.337Z,84.87
2022-08-17T20:40:16.068Z,84.70
2022-08-17T20:41:16.748Z,85.21
2022-08-17T20:42:24.490Z,85.27
2022-08-17T20:43:17.659Z,85.26
2022-08-17T20:44:18.291Z,85.35
2022-08-17T20:45:18.659Z,85.27
2022-08-17T20:46:19.179Z,85.33
2022-08-17T20:46:33.125Z,85.42
2022-08-17T20:47:33.812Z,85.40
2022-08-17T20:48:38.946Z,84.97
2022-08-17T20:49:35.061Z,85.26
2022-08-17T20:50:36.626Z,85.24
2022-08-17T20:51:35.741Z,85.37
2022-08-17T20:52:35.804Z,85.79
2022-08-17T20:53:36.719Z,88.47
2022-08-17T20:54:37.169Z,91.48
2022-08-17T20:55:51.804Z,92.82
2022-08-17T20:56:38.146Z,90.89
2022-08-17T20:57:38.254Z,90.91
2022-08-17T20:58:39.644Z,90.18
2022-08-17T20:59:39.437Z,88.76
2022-08-17T21:00:41.178Z,87.47
2022-08-17T21:01:41.713Z,86.98
2022-08-17T21:02:41.639Z,87.05
2022-08-17T21:03:50.097Z,86.66
2022-08-17T21:04:41.893Z,86.16
2022-08-17T21:05:41.927Z,85.95
2022-08-17T21:06:42.658Z,85.78
2022-08-17T21:07:43.930Z,85.66
2022-08-17T21:08:45.893Z,86.53
2022-08-17T21:09:45.062Z,86.68
2022-08-17T21:09:57.058Z,86.46
2022-08-17T21:10:57.064Z,86.45
2022-08-17T21:12:04.273Z,86.14
2022-08-17T21:12:57.952Z,86.02
2022-08-17T21:13:59.247Z,86.05
2022-08-17T21:14:59.908Z,85.83
2022-08-17T21:15:59.475Z,86.18
2022-08-17T21:17:00.249Z,86.18
2022-08-17T21:18:00.869Z,86.75
2022-08-17T21:19:01.958Z,87.15
2022-08-17T21:20:17.392Z,88.04
2022-08-17T21:21:01.645Z,87.58
2022-08-17T21:22:02.672Z,87.96
2022-08-17T21:23:02.561Z,87.64
2022-08-17T21:24:04.172Z,87.79
2022-08-17T21:25:03.207Z,88.69
2022-08-17T21:26:03.838Z,88.37
2022-08-17T21:27:04.005Z,88.11
2022-08-17T21:28:04.364Z,88.39
2022-08-17T21:29:29.508Z,88.07
2022-08-17T21:30:06.624Z,89.06
2022-08-17T21:31:06.781Z,89.20
2022-08-17T21:32:09.004Z,88.47
2022-08-17T21:32:24.694Z,88.90
2022-08-17T21:33:20.252Z,88.93
2022-08-17T21:34:20.073Z,89.14
2022-08-17T21:35:20.554Z,89.08
2022-08-17T21:36:22.545Z,88.90
2022-08-17T21:37:22.006Z,88.87
2022-08-17T21:38:22.534Z,89.01
2022-08-17T21:39:23.964Z,89.99
2022-08-17T21:40:23.301Z,89.96
2022-08-17T21:41:23.872Z,90.35
2022-08-17T21:42:24.318Z,89.12
2022-08-17T21:43:25.286Z,90.23
2022-08-17T21:44:31.095Z,90.02
2022-08-17T21:45:26.201Z,90.48
2022-08-17T21:46:27.434Z,90.20
2022-08-17T21:47:28.099Z,89.73
2022-08-17T21:48:28.046Z,90.31
2022-08-17T21:49:29.218Z,90.42
2022-08-17T21:50:30.064Z,90.32
2022-08-17T21:51:29.424Z,90.26
2022-08-17T21:52:31.050Z,90.89
2022-08-17T21:53:33.045Z,91.01
2022-08-17T21:54:31.037Z,91.34
2022-08-17T21:55:31.462Z,91.37